sensor_id;sensor_type;location;lat;lon;timestamp;P1;durP1;ratioP1;P2;durP2;ratioP2
14776;SDS011;7480;43.124;25.686;2023-05-07T00:00:45;6.43;;;5.20;;
14776;SDS011;7480;43.124;25.686;2023-05-07T00:03:11;6.77;;;4.73;;
14776;SDS011;7480;43.124;25.686;2023-05-07T00:05:40;6.70;;;5.00;;
14776;SDS011;7480;43.124;25.686;2023-05-07T00:08:07;6.30;;;4.80;;
14776;SDS011;7480;43.124;25.686;2023-05-07T00:10:34;5.83;;;4.73;;
14776;SDS011;7480;43.124;25.686;2023-05-07T00:13:00;6.10;;;5.50;;
14776;SDS011;7480;43.124;25.686;2023-05-07T00:15:27;8.53;;;4.90;;
14776;SDS011;7480;43.124;25.686;2023-05-07T00:17:53;4.97;;;4.57;;
14776;SDS011;7480;43.124;25.686;2023-05-07T00:20:20;5.93;;;4.70;;
14776;SDS011;7480;43.124;25.686;2023-05-07T00:22:46;6.10;;;5.00;;
14776;SDS011;7480;43.124;25.686;2023-05-07T00:25:13;7.57;;;4.67;;
14776;SDS011;7480;43.124;25.686;2023-05-07T00:27:39;6.03;;;4.80;;
14776;SDS011;7480;43.124;25.686;2023-05-07T00:30:06;5.60;;;4.80;;
14776;SDS011;7480;43.124;25.686;2023-05-07T00:32:33;9.47;;;5.33;;
14776;SDS011;7480;43.124;25.686;2023-05-07T00:35:00;5.50;;;5.00;;
14776;SDS011;7480;43.124;25.686;2023-05-07T00:37:26;6.50;;;5.03;;
14776;SDS011;7480;43.124;25.686;2023-05-07T00:39:53;6.13;;;5.17;;
14776;SDS011;7480;43.124;25.686;2023-05-07T00:42:19;6.30;;;4.90;;
14776;SDS011;7480;43.124;25.686;2023-05-07T00:44:47;6.07;;;4.77;;
14776;SDS011;7480;43.124;25.686;2023-05-07T00:47:13;5.17;;;4.67;;
14776;SDS011;7480;43.124;25.686;2023-05-07T00:49:44;5.97;;;4.93;;
14776;SDS011;7480;43.124;25.686;2023-05-07T00:52:11;5.37;;;4.70;;
14776;SDS011;7480;43.124;25.686;2023-05-07T00:54:40;8.97;;;5.73;;
14776;SDS011;7480;43.124;25.686;2023-05-07T00:57:07;6.27;;;4.90;;
14776;SDS011;7480;43.124;25.686;2023-05-07T00:59:34;5.67;;;4.70;;
14776;SDS011;7480;43.124;25.686;2023-05-07T01:02:01;5.73;;;4.90;;
14776;SDS011;7480;43.124;25.686;2023-05-07T01:04:27;7.07;;;4.57;;
14776;SDS011;7480;43.124;25.686;2023-05-07T01:06:54;5.87;;;4.63;;
14776;SDS011;7480;43.124;25.686;2023-05-07T01:09:25;5.90;;;5.03;;
14776;SDS011;7480;43.124;25.686;2023-05-07T01:11:52;5.20;;;4.70;;
14776;SDS011;7480;43.124;25.686;2023-05-07T01:14:19;5.63;;;4.63;;
14776;SDS011;7480;43.124;25.686;2023-05-07T01:16:47;7.23;;;4.90;;
14776;SDS011;7480;43.124;25.686;2023-05-07T01:19:14;6.30;;;4.80;;
14776;SDS011;7480;43.124;25.686;2023-05-07T01:21:44;7.13;;;4.73;;
14776;SDS011;7480;43.124;25.686;2023-05-07T01:24:12;5.57;;;4.90;;
14776;SDS011;7480;43.124;25.686;2023-05-07T01:26:38;5.67;;;4.63;;
14776;SDS011;7480;43.124;25.686;2023-05-07T01:29:06;6.37;;;4.97;;
14776;SDS011;7480;43.124;25.686;2023-05-07T01:31:33;6.13;;;4.93;;
14776;SDS011;7480;43.124;25.686;2023-05-07T01:34:01;7.10;;;4.87;;
14776;SDS011;7480;43.124;25.686;2023-05-07T01:36:28;7.87;;;5.13;;
14776;SDS011;7480;43.124;25.686;2023-05-07T01:38:56;6.70;;;5.40;;
14776;SDS011;7480;43.124;25.686;2023-05-07T01:41:24;6.27;;;4.40;;
14776;SDS011;7480;43.124;25.686;2023-05-07T01:43:50;6.30;;;4.87;;
14776;SDS011;7480;43.124;25.686;2023-05-07T01:46:18;5.30;;;4.70;;
14776;SDS011;7480;43.124;25.686;2023-05-07T01:48:45;6.73;;;4.67;;
14776;SDS011;7480;43.124;25.686;2023-05-07T01:51:12;7.07;;;4.70;;
14776;SDS011;7480;43.124;25.686;2023-05-07T01:53:39;6.53;;;5.10;;
14776;SDS011;7480;43.124;25.686;2023-05-07T01:56:06;5.67;;;5.00;;
14776;SDS011;7480;43.124;25.686;2023-05-07T01:58:33;6.03;;;4.73;;
14776;SDS011;7480;43.124;25.686;2023-05-07T02:01:00;5.03;;;4.47;;
14776;SDS011;7480;43.124;25.686;2023-05-07T02:03:26;7.77;;;5.17;;
14776;SDS011;7480;43.124;25.686;2023-05-07T02:05:53;7.07;;;4.77;;
14776;SDS011;7480;43.124;25.686;2023-05-07T02:08:19;8.07;;;5.60;;
14776;SDS011;7480;43.124;25.686;2023-05-07T02:10:46;6.33;;;5.37;;
14776;SDS011;7480;43.124;25.686;2023-05-07T02:13:12;6.73;;;5.30;;
14776;SDS011;7480;43.124;25.686;2023-05-07T02:15:39;6.27;;;5.20;;
14776;SDS011;7480;43.124;25.686;2023-05-07T02:18:06;6.77;;;4.70;;
14776;SDS011;7480;43.124;25.686;2023-05-07T02:20:33;5.53;;;4.80;;
14776;SDS011;7480;43.124;25.686;2023-05-07T02:22:59;7.00;;;4.73;;
14776;SDS011;7480;43.124;25.686;2023-05-07T02:25:26;6.00;;;4.90;;
14776;SDS011;7480;43.124;25.686;2023-05-07T02:27:53;6.73;;;5.10;;
14776;SDS011;7480;43.124;25.686;2023-05-07T02:30:19;6.13;;;5.00;;
14776;SDS011;7480;43.124;25.686;2023-05-07T02:32:47;5.50;;;4.90;;
14776;SDS011;7480;43.124;25.686;2023-05-07T02:35:14;5.20;;;4.67;;
14776;SDS011;7480;43.124;25.686;2023-05-07T02:37:40;5.70;;;4.77;;
14776;SDS011;7480;43.124;25.686;2023-05-07T02:40:07;7.67;;;5.23;;
14776;SDS011;7480;43.124;25.686;2023-05-07T02:42:34;6.00;;;4.90;;
14776;SDS011;7480;43.124;25.686;2023-05-07T02:45:01;6.37;;;4.67;;
14776;SDS011;7480;43.124;25.686;2023-05-07T02:47:27;8.60;;;4.63;;
14776;SDS011;7480;43.124;25.686;2023-05-07T02:49:55;5.73;;;5.13;;
14776;SDS011;7480;43.124;25.686;2023-05-07T02:52:21;9.10;;;5.17;;
14776;SDS011;7480;43.124;25.686;2023-05-07T02:54:48;6.23;;;4.83;;
14776;SDS011;7480;43.124;25.686;2023-05-07T02:57:15;7.93;;;4.97;;
14776;SDS011;7480;43.124;25.686;2023-05-07T02:59:41;8.27;;;5.00;;
14776;SDS011;7480;43.124;25.686;2023-05-07T03:02:08;4.60;;;4.10;;
14776;SDS011;7480;43.124;25.686;2023-05-07T03:04:35;7.40;;;5.00;;
14776;SDS011;7480;43.124;25.686;2023-05-07T03:07:01;5.50;;;4.20;;
14776;SDS011;7480;43.124;25.686;2023-05-07T03:09:28;8.27;;;5.10;;
14776;SDS011;7480;43.124;25.686;2023-05-07T03:11:54;8.07;;;4.97;;
14776;SDS011;7480;43.124;25.686;2023-05-07T03:14:21;5.60;;;4.63;;
14776;SDS011;7480;43.124;25.686;2023-05-07T03:16:48;5.60;;;4.30;;
14776;SDS011;7480;43.124;25.686;2023-05-07T03:19:15;8.33;;;4.50;;
14776;SDS011;7480;43.124;25.686;2023-05-07T03:21:41;4.67;;;4.17;;
14776;SDS011;7480;43.124;25.686;2023-05-07T03:24:08;5.27;;;4.23;;
14776;SDS011;7480;43.124;25.686;2023-05-07T03:26:35;6.23;;;4.70;;
14776;SDS011;7480;43.124;25.686;2023-05-07T03:29:02;10.10;;;4.50;;
14776;SDS011;7480;43.124;25.686;2023-05-07T03:31:28;6.83;;;4.80;;
14776;SDS011;7480;43.124;25.686;2023-05-07T03:33:55;5.87;;;4.43;;
14776;SDS011;7480;43.124;25.686;2023-05-07T03:36:22;6.47;;;4.37;;
14776;SDS011;7480;43.124;25.686;2023-05-07T03:38:49;7.13;;;4.30;;
14776;SDS011;7480;43.124;25.686;2023-05-07T03:41:16;8.27;;;4.60;;
14776;SDS011;7480;43.124;25.686;2023-05-07T03:43:42;6.47;;;4.40;;
14776;SDS011;7480;43.124;25.686;2023-05-07T03:46:09;5.53;;;3.93;;
14776;SDS011;7480;43.124;25.686;2023-05-07T03:48:35;6.93;;;5.50;;
14776;SDS011;7480;43.124;25.686;2023-05-07T03:51:02;21.60;;;15.03;;
14776;SDS011;7480;43.124;25.686;2023-05-07T03:53:28;20.57;;;16.53;;
14776;SDS011;7480;43.124;25.686;2023-05-07T03:55:55;20.33;;;18.10;;
14776;SDS011;7480;43.124;25.686;2023-05-07T03:58:21;9.60;;;6.77;;
14776;SDS011;7480;43.124;25.686;2023-05-07T04:00:48;13.33;;;10.03;;
14776;SDS011;7480;43.124;25.686;2023-05-07T04:03:15;9.07;;;7.90;;
14776;SDS011;7480;43.124;25.686;2023-05-07T04:05:42;8.97;;;8.03;;
14776;SDS011;7480;43.124;25.686;2023-05-07T04:08:08;7.83;;;5.23;;
14776;SDS011;7480;43.124;25.686;2023-05-07T04:10:34;7.10;;;5.67;;
14776;SDS011;7480;43.124;25.686;2023-05-07T04:13:01;6.40;;;4.93;;
14776;SDS011;7480;43.124;25.686;2023-05-07T04:15:28;7.03;;;5.37;;
14776;SDS011;7480;43.124;25.686;2023-05-07T04:17:54;7.43;;;5.63;;
14776;SDS011;7480;43.124;25.686;2023-05-07T04:20:21;10.43;;;4.43;;
14776;SDS011;7480;43.124;25.686;2023-05-07T04:22:47;7.57;;;4.37;;
14776;SDS011;7480;43.124;25.686;2023-05-07T04:25:14;5.43;;;4.47;;
14776;SDS011;7480;43.124;25.686;2023-05-07T04:27:42;6.80;;;4.10;;
14776;SDS011;7480;43.124;25.686;2023-05-07T04:30:09;4.90;;;3.77;;
14776;SDS011;7480;43.124;25.686;2023-05-07T04:32:36;7.03;;;4.60;;
14776;SDS011;7480;43.124;25.686;2023-05-07T04:35:03;5.50;;;4.23;;
14776;SDS011;7480;43.124;25.686;2023-05-07T04:37:31;8.33;;;4.17;;
14776;SDS011;7480;43.124;25.686;2023-05-07T04:39:58;6.57;;;4.53;;
14776;SDS011;7480;43.124;25.686;2023-05-07T04:42:24;5.77;;;4.60;;
14776;SDS011;7480;43.124;25.686;2023-05-07T04:44:52;3.90;;;3.50;;
14776;SDS011;7480;43.124;25.686;2023-05-07T04:47:19;5.20;;;4.30;;
14776;SDS011;7480;43.124;25.686;2023-05-07T04:49:49;4.93;;;4.22;;
14776;SDS011;7480;43.124;25.686;2023-05-07T04:52:16;4.67;;;3.40;;
14776;SDS011;7480;43.124;25.686;2023-05-07T04:54:42;8.87;;;3.93;;
14776;SDS011;7480;43.124;25.686;2023-05-07T04:57:09;6.17;;;3.87;;
14776;SDS011;7480;43.124;25.686;2023-05-07T04:59:35;5.80;;;4.00;;
14776;SDS011;7480;43.124;25.686;2023-05-07T05:02:02;5.23;;;4.00;;
14776;SDS011;7480;43.124;25.686;2023-05-07T05:04:30;4.83;;;3.87;;
14776;SDS011;7480;43.124;25.686;2023-05-07T05:06:57;6.73;;;3.80;;
14776;SDS011;7480;43.124;25.686;2023-05-07T05:09:24;6.53;;;3.80;;
14776;SDS011;7480;43.124;25.686;2023-05-07T05:11:50;7.33;;;4.07;;
14776;SDS011;7480;43.124;25.686;2023-05-07T05:14:16;4.87;;;4.40;;
14776;SDS011;7480;43.124;25.686;2023-05-07T05:16:43;5.87;;;4.10;;
14776;SDS011;7480;43.124;25.686;2023-05-07T05:19:09;6.03;;;4.50;;
14776;SDS011;7480;43.124;25.686;2023-05-07T05:21:36;5.77;;;5.00;;
14776;SDS011;7480;43.124;25.686;2023-05-07T05:24:03;9.20;;;5.30;;
14776;SDS011;7480;43.124;25.686;2023-05-07T05:26:29;5.87;;;4.50;;
14776;SDS011;7480;43.124;25.686;2023-05-07T05:28:56;5.47;;;4.80;;
14776;SDS011;7480;43.124;25.686;2023-05-07T05:31:22;5.77;;;4.33;;
14776;SDS011;7480;43.124;25.686;2023-05-07T05:33:49;4.73;;;4.20;;
14776;SDS011;7480;43.124;25.686;2023-05-07T05:36:15;7.57;;;4.67;;
14776;SDS011;7480;43.124;25.686;2023-05-07T05:38:42;8.20;;;4.00;;
14776;SDS011;7480;43.124;25.686;2023-05-07T05:41:08;4.57;;;3.83;;
14776;SDS011;7480;43.124;25.686;2023-05-07T05:43:35;8.43;;;3.73;;
14776;SDS011;7480;43.124;25.686;2023-05-07T05:46:02;4.60;;;4.10;;
14776;SDS011;7480;43.124;25.686;2023-05-07T05:48:30;7.93;;;4.13;;
14776;SDS011;7480;43.124;25.686;2023-05-07T05:50:57;4.70;;;4.17;;
14776;SDS011;7480;43.124;25.686;2023-05-07T05:53:23;7.30;;;4.17;;
14776;SDS011;7480;43.124;25.686;2023-05-07T05:55:50;6.10;;;4.70;;
14776;SDS011;7480;43.124;25.686;2023-05-07T05:58:17;5.70;;;3.83;;
14776;SDS011;7480;43.124;25.686;2023-05-07T06:00:44;13.32;;;4.57;;
14776;SDS011;7480;43.124;25.686;2023-05-07T06:03:11;4.20;;;3.17;;
14776;SDS011;7480;43.124;25.686;2023-05-07T06:05:39;5.03;;;3.47;;
14776;SDS011;7480;43.124;25.686;2023-05-07T06:08:06;3.47;;;3.00;;
14776;SDS011;7480;43.124;25.686;2023-05-07T06:10:32;3.90;;;3.00;;
14776;SDS011;7480;43.124;25.686;2023-05-07T06:12:59;3.17;;;2.87;;
14776;SDS011;7480;43.124;25.686;2023-05-07T06:15:25;3.93;;;3.00;;
14776;SDS011;7480;43.124;25.686;2023-05-07T06:17:52;6.17;;;3.37;;
14776;SDS011;7480;43.124;25.686;2023-05-07T06:20:18;5.77;;;2.80;;
14776;SDS011;7480;43.124;25.686;2023-05-07T06:22:45;2.57;;;2.37;;
14776;SDS011;7480;43.124;25.686;2023-05-07T06:25:11;3.60;;;2.60;;
14776;SDS011;7480;43.124;25.686;2023-05-07T06:27:37;5.47;;;2.70;;
14776;SDS011;7480;43.124;25.686;2023-05-07T06:30:06;4.70;;;2.87;;
14776;SDS011;7480;43.124;25.686;2023-05-07T06:32:32;2.97;;;2.60;;
14776;SDS011;7480;43.124;25.686;2023-05-07T06:34:59;4.07;;;2.60;;
14776;SDS011;7480;43.124;25.686;2023-05-07T06:37:26;3.17;;;2.20;;
14776;SDS011;7480;43.124;25.686;2023-05-07T06:39:52;4.93;;;2.50;;
14776;SDS011;7480;43.124;25.686;2023-05-07T06:42:19;3.67;;;3.03;;
14776;SDS011;7480;43.124;25.686;2023-05-07T06:44:45;3.87;;;2.47;;
14776;SDS011;7480;43.124;25.686;2023-05-07T06:47:12;2.63;;;2.27;;
14776;SDS011;7480;43.124;25.686;2023-05-07T06:49:41;2.47;;;2.20;;
14776;SDS011;7480;43.124;25.686;2023-05-07T06:52:07;2.60;;;2.20;;
14776;SDS011;7480;43.124;25.686;2023-05-07T06:54:34;3.47;;;2.93;;
14776;SDS011;7480;43.124;25.686;2023-05-07T06:57:00;2.87;;;2.50;;
14776;SDS011;7480;43.124;25.686;2023-05-07T06:59:27;4.00;;;2.43;;
14776;SDS011;7480;43.124;25.686;2023-05-07T07:01:53;3.17;;;2.30;;
14776;SDS011;7480;43.124;25.686;2023-05-07T07:04:21;3.93;;;2.60;;
14776;SDS011;7480;43.124;25.686;2023-05-07T07:06:49;2.83;;;2.23;;
14776;SDS011;7480;43.124;25.686;2023-05-07T07:09:16;3.53;;;2.40;;
14776;SDS011;7480;43.124;25.686;2023-05-07T07:11:42;4.70;;;2.53;;
14776;SDS011;7480;43.124;25.686;2023-05-07T07:14:09;4.07;;;2.13;;
14776;SDS011;7480;43.124;25.686;2023-05-07T07:16:35;4.93;;;2.40;;
14776;SDS011;7480;43.124;25.686;2023-05-07T07:19:02;2.10;;;1.90;;
14776;SDS011;7480;43.124;25.686;2023-05-07T07:21:28;7.27;;;2.33;;
14776;SDS011;7480;43.124;25.686;2023-05-07T07:23:56;4.90;;;2.17;;
14776;SDS011;7480;43.124;25.686;2023-05-07T07:26:22;4.87;;;2.10;;
14776;SDS011;7480;43.124;25.686;2023-05-07T07:28:49;5.23;;;2.23;;
14776;SDS011;7480;43.124;25.686;2023-05-07T07:31:16;4.30;;;2.10;;
14776;SDS011;7480;43.124;25.686;2023-05-07T07:33:42;3.17;;;2.30;;
14776;SDS011;7480;43.124;25.686;2023-05-07T07:36:09;2.37;;;2.17;;
14776;SDS011;7480;43.124;25.686;2023-05-07T07:38:35;3.10;;;1.80;;
14776;SDS011;7480;43.124;25.686;2023-05-07T07:41:02;2.07;;;1.60;;
14776;SDS011;7480;43.124;25.686;2023-05-07T07:43:28;6.33;;;2.10;;
14776;SDS011;7480;43.124;25.686;2023-05-07T07:45:55;2.33;;;1.83;;
14776;SDS011;7480;43.124;25.686;2023-05-07T07:48:21;2.60;;;1.70;;
14776;SDS011;7480;43.124;25.686;2023-05-07T07:50:48;2.40;;;1.77;;
14776;SDS011;7480;43.124;25.686;2023-05-07T07:53:15;2.57;;;1.67;;
14776;SDS011;7480;43.124;25.686;2023-05-07T07:55:41;2.37;;;1.70;;
14776;SDS011;7480;43.124;25.686;2023-05-07T07:58:08;2.87;;;1.53;;
14776;SDS011;7480;43.124;25.686;2023-05-07T08:00:34;3.60;;;1.97;;
14776;SDS011;7480;43.124;25.686;2023-05-07T08:03:01;1.80;;;1.37;;
14776;SDS011;7480;43.124;25.686;2023-05-07T08:05:29;4.80;;;1.93;;
14776;SDS011;7480;43.124;25.686;2023-05-07T08:07:56;3.57;;;2.13;;
14776;SDS011;7480;43.124;25.686;2023-05-07T08:10:22;2.20;;;2.00;;
14776;SDS011;7480;43.124;25.686;2023-05-07T08:12:49;4.40;;;1.80;;
14776;SDS011;7480;43.124;25.686;2023-05-07T08:15:16;2.40;;;1.70;;
14776;SDS011;7480;43.124;25.686;2023-05-07T08:17:43;3.67;;;1.90;;
14776;SDS011;7480;43.124;25.686;2023-05-07T08:20:09;2.83;;;1.50;;
14776;SDS011;7480;43.124;25.686;2023-05-07T08:22:36;5.30;;;1.73;;
14776;SDS011;7480;43.124;25.686;2023-05-07T08:25:03;2.70;;;1.20;;
14776;SDS011;7480;43.124;25.686;2023-05-07T08:27:30;4.43;;;1.63;;
14776;SDS011;7480;43.124;25.686;2023-05-07T08:29:59;4.30;;;1.63;;
14776;SDS011;7480;43.124;25.686;2023-05-07T08:32:25;3.10;;;1.60;;
14776;SDS011;7480;43.124;25.686;2023-05-07T08:34:52;2.83;;;1.77;;
14776;SDS011;7480;43.124;25.686;2023-05-07T08:37:18;1.73;;;1.60;;
14776;SDS011;7480;43.124;25.686;2023-05-07T08:39:45;2.63;;;1.30;;
14776;SDS011;7480;43.124;25.686;2023-05-07T08:42:12;2.13;;;1.77;;
14776;SDS011;7480;43.124;25.686;2023-05-07T08:44:39;1.97;;;1.60;;
14776;SDS011;7480;43.124;25.686;2023-05-07T08:47:06;2.80;;;1.70;;
14776;SDS011;7480;43.124;25.686;2023-05-07T08:49:33;1.80;;;1.50;;
14776;SDS011;7480;43.124;25.686;2023-05-07T08:52:00;3.63;;;1.50;;
14776;SDS011;7480;43.124;25.686;2023-05-07T08:54:27;5.53;;;1.77;;
14776;SDS011;7480;43.124;25.686;2023-05-07T08:56:55;2.50;;;1.53;;
14776;SDS011;7480;43.124;25.686;2023-05-07T08:59:21;3.20;;;1.77;;
14776;SDS011;7480;43.124;25.686;2023-05-07T09:01:48;2.80;;;1.70;;
14776;SDS011;7480;43.124;25.686;2023-05-07T09:04:15;2.33;;;1.80;;
14776;SDS011;7480;43.124;25.686;2023-05-07T09:06:42;2.03;;;1.60;;
14776;SDS011;7480;43.124;25.686;2023-05-07T09:09:08;2.03;;;1.67;;
14776;SDS011;7480;43.124;25.686;2023-05-07T09:11:35;2.87;;;1.93;;
14776;SDS011;7480;43.124;25.686;2023-05-07T09:14:01;5.00;;;1.73;;
14776;SDS011;7480;43.124;25.686;2023-05-07T09:16:29;3.87;;;1.57;;
14776;SDS011;7480;43.124;25.686;2023-05-07T09:18:58;4.70;;;1.67;;
14776;SDS011;7480;43.124;25.686;2023-05-07T09:21:24;4.90;;;1.80;;
14776;SDS011;7480;43.124;25.686;2023-05-07T09:23:52;2.70;;;1.50;;
14776;SDS011;7480;43.124;25.686;2023-05-07T09:26:22;2.38;;;1.70;;
14776;SDS011;7480;43.124;25.686;2023-05-07T09:28:49;3.08;;;1.75;;
14776;SDS011;7480;43.124;25.686;2023-05-07T09:31:16;2.08;;;1.67;;
14776;SDS011;7480;43.124;25.686;2023-05-07T09:33:46;3.95;;;1.70;;
14776;SDS011;7480;43.124;25.686;2023-05-07T09:36:12;2.65;;;1.35;;
14776;SDS011;7480;43.124;25.686;2023-05-07T09:38:39;1.65;;;1.48;;
14776;SDS011;7480;43.124;25.686;2023-05-07T09:41:07;5.47;;;1.85;;
14776;SDS011;7480;43.124;25.686;2023-05-07T09:43:35;2.27;;;1.60;;
14776;SDS011;7480;43.124;25.686;2023-05-07T09:48:35;3.80;;;1.75;;
14776;SDS011;7480;43.124;25.686;2023-05-07T09:51:03;1.77;;;1.40;;
14776;SDS011;7480;43.124;25.686;2023-05-07T09:53:33;3.00;;;1.87;;
14776;SDS011;7480;43.124;25.686;2023-05-07T09:55:59;2.00;;;1.67;;
14776;SDS011;7480;43.124;25.686;2023-05-07T09:58:30;3.00;;;1.80;;
14776;SDS011;7480;43.124;25.686;2023-05-07T10:00:57;3.65;;;1.65;;
14776;SDS011;7480;43.124;25.686;2023-05-07T10:03:24;2.67;;;1.88;;
14776;SDS011;7480;43.124;25.686;2023-05-07T10:05:52;3.60;;;1.80;;
14776;SDS011;7480;43.124;25.686;2023-05-07T10:08:20;2.10;;;1.73;;
14776;SDS011;7480;43.124;25.686;2023-05-07T10:10:47;2.43;;;1.70;;
14776;SDS011;7480;43.124;25.686;2023-05-07T10:13:15;2.80;;;1.80;;
14776;SDS011;7480;43.124;25.686;2023-05-07T10:15:42;2.03;;;1.73;;
14776;SDS011;7480;43.124;25.686;2023-05-07T10:18:09;2.20;;;1.63;;
14776;SDS011;7480;43.124;25.686;2023-05-07T10:20:38;6.07;;;2.17;;
14776;SDS011;7480;43.124;25.686;2023-05-07T10:23:05;2.27;;;1.73;;
14776;SDS011;7480;43.124;25.686;2023-05-07T10:25:32;3.73;;;2.00;;
14776;SDS011;7480;43.124;25.686;2023-05-07T10:28:08;3.20;;;1.90;;
14776;SDS011;7480;43.124;25.686;2023-05-07T10:33:04;2.33;;;1.90;;
14776;SDS011;7480;43.124;25.686;2023-05-07T10:35:41;2.73;;;2.00;;
14776;SDS011;7480;43.124;25.686;2023-05-07T10:38:08;2.70;;;1.80;;
14776;SDS011;7480;43.124;25.686;2023-05-07T10:40:35;2.20;;;2.00;;
14776;SDS011;7480;43.124;25.686;2023-05-07T10:43:03;4.03;;;1.93;;
14776;SDS011;7480;43.124;25.686;2023-05-07T10:45:36;5.37;;;1.87;;
14776;SDS011;7480;43.124;25.686;2023-05-07T10:51:17;2.60;;;1.77;;
14776;SDS011;7480;43.124;25.686;2023-05-07T10:53:40;3.47;;;1.70;;
14776;SDS011;7480;43.124;25.686;2023-05-07T10:58:42;2.88;;;2.13;;
14776;SDS011;7480;43.124;25.686;2023-05-07T11:01:09;3.60;;;1.73;;
14776;SDS011;7480;43.124;25.686;2023-05-07T11:03:37;2.58;;;1.80;;
14776;SDS011;7480;43.124;25.686;2023-05-07T11:06:23;2.72;;;1.70;;
14776;SDS011;7480;43.124;25.686;2023-05-07T11:11:17;2.55;;;1.60;;
14776;SDS011;7480;43.124;25.686;2023-05-07T11:13:44;3.10;;;1.83;;
14776;SDS011;7480;43.124;25.686;2023-05-07T11:16:18;2.22;;;1.60;;
14776;SDS011;7480;43.124;25.686;2023-05-07T11:18:49;1.83;;;1.73;;
14776;SDS011;7480;43.124;25.686;2023-05-07T11:23:58;2.90;;;1.90;;
14776;SDS011;7480;43.124;25.686;2023-05-07T11:26:25;3.70;;;2.03;;
14776;SDS011;7480;43.124;25.686;2023-05-07T11:28:53;2.05;;;1.58;;
14776;SDS011;7480;43.124;25.686;2023-05-07T11:31:22;2.90;;;1.87;;
14776;SDS011;7480;43.124;25.686;2023-05-07T11:33:49;3.25;;;2.05;;
14776;SDS011;7480;43.124;25.686;2023-05-07T11:36:16;2.58;;;1.80;;
14776;SDS011;7480;43.124;25.686;2023-05-07T11:38:44;3.22;;;1.77;;
14776;SDS011;7480;43.124;25.686;2023-05-07T11:41:10;5.53;;;1.90;;
14776;SDS011;7480;43.124;25.686;2023-05-07T11:43:37;3.15;;;1.65;;
14776;SDS011;7480;43.124;25.686;2023-05-07T11:46:10;2.50;;;1.63;;
14776;SDS011;7480;43.124;25.686;2023-05-07T11:48:37;2.47;;;1.70;;
14776;SDS011;7480;43.124;25.686;2023-05-07T11:51:05;3.83;;;2.00;;
14776;SDS011;7480;43.124;25.686;2023-05-07T11:53:38;2.67;;;1.90;;
14776;SDS011;7480;43.124;25.686;2023-05-07T11:56:05;3.47;;;2.08;;
14776;SDS011;7480;43.124;25.686;2023-05-07T11:58:32;3.53;;;1.93;;
14776;SDS011;7480;43.124;25.686;2023-05-07T12:00:58;4.40;;;1.70;;
14776;SDS011;7480;43.124;25.686;2023-05-07T12:03:25;1.80;;;1.70;;
14776;SDS011;7480;43.124;25.686;2023-05-07T12:05:54;2.92;;;1.80;;
14776;SDS011;7480;43.124;25.686;2023-05-07T12:08:21;3.38;;;1.85;;
14776;SDS011;7480;43.124;25.686;2023-05-07T12:10:48;2.17;;;1.90;;
14776;SDS011;7480;43.124;25.686;2023-05-07T12:13:19;2.60;;;1.80;;
14776;SDS011;7480;43.124;25.686;2023-05-07T12:15:46;2.78;;;1.70;;
14776;SDS011;7480;43.124;25.686;2023-05-07T12:18:12;2.28;;;1.67;;
14776;SDS011;7480;43.124;25.686;2023-05-07T12:20:39;3.53;;;2.08;;
14776;SDS011;7480;43.124;25.686;2023-05-07T12:23:06;2.35;;;1.88;;
14776;SDS011;7480;43.124;25.686;2023-05-07T12:25:36;3.80;;;2.30;;
14776;SDS011;7480;43.124;25.686;2023-05-07T12:28:03;3.00;;;1.70;;
14776;SDS011;7480;43.124;25.686;2023-05-07T12:30:38;3.67;;;1.85;;
14776;SDS011;7480;43.124;25.686;2023-05-07T12:33:05;2.95;;;2.08;;
14776;SDS011;7480;43.124;25.686;2023-05-07T12:35:32;2.55;;;2.00;;
14776;SDS011;7480;43.124;25.686;2023-05-07T12:38:02;4.43;;;2.13;;
14776;SDS011;7480;43.124;25.686;2023-05-07T12:40:37;3.53;;;1.65;;
14776;SDS011;7480;43.124;25.686;2023-05-07T12:43:03;2.67;;;1.70;;
14776;SDS011;7480;43.124;25.686;2023-05-07T12:45:30;4.38;;;1.77;;
14776;SDS011;7480;43.124;25.686;2023-05-07T12:47:57;2.90;;;1.90;;
14776;SDS011;7480;43.124;25.686;2023-05-07T12:50:30;1.90;;;1.70;;
14776;SDS011;7480;43.124;25.686;2023-05-07T12:52:57;2.58;;;2.03;;
14776;SDS011;7480;43.124;25.686;2023-05-07T12:55:23;2.33;;;1.65;;
14776;SDS011;7480;43.124;25.686;2023-05-07T12:57:50;2.53;;;2.00;;
14776;SDS011;7480;43.124;25.686;2023-05-07T13:00:17;3.03;;;1.90;;
14776;SDS011;7480;43.124;25.686;2023-05-07T13:02:44;2.15;;;1.95;;
14776;SDS011;7480;43.124;25.686;2023-05-07T13:05:11;3.63;;;2.15;;
14776;SDS011;7480;43.124;25.686;2023-05-07T13:07:39;1.75;;;1.65;;
14776;SDS011;7480;43.124;25.686;2023-05-07T13:10:07;2.33;;;2.00;;
14776;SDS011;7480;43.124;25.686;2023-05-07T13:12:33;3.78;;;2.15;;
14776;SDS011;7480;43.124;25.686;2023-05-07T13:15:00;2.33;;;1.52;;
14776;SDS011;7480;43.124;25.686;2023-05-07T13:17:27;2.97;;;1.88;;
14776;SDS011;7480;43.124;25.686;2023-05-07T13:19:53;4.35;;;2.03;;
14776;SDS011;7480;43.124;25.686;2023-05-07T13:22:20;3.25;;;1.90;;
14776;SDS011;7480;43.124;25.686;2023-05-07T13:24:46;3.97;;;1.80;;
14776;SDS011;7480;43.124;25.686;2023-05-07T13:27:13;2.60;;;1.95;;
14776;SDS011;7480;43.124;25.686;2023-05-07T13:29:39;3.42;;;1.83;;
14776;SDS011;7480;43.124;25.686;2023-05-07T13:32:06;3.20;;;2.17;;
14776;SDS011;7480;43.124;25.686;2023-05-07T13:34:32;2.80;;;2.05;;
14776;SDS011;7480;43.124;25.686;2023-05-07T13:36:59;3.45;;;2.00;;
14776;SDS011;7480;43.124;25.686;2023-05-07T13:39:26;4.13;;;2.58;;
14776;SDS011;7480;43.124;25.686;2023-05-07T13:41:52;2.37;;;1.80;;
14776;SDS011;7480;43.124;25.686;2023-05-07T13:44:19;5.20;;;1.73;;
14776;SDS011;7480;43.124;25.686;2023-05-07T13:46:45;2.15;;;1.63;;
14776;SDS011;7480;43.124;25.686;2023-05-07T13:49:12;2.40;;;2.10;;
14776;SDS011;7480;43.124;25.686;2023-05-07T13:51:39;2.83;;;1.67;;
14776;SDS011;7480;43.124;25.686;2023-05-07T13:54:05;3.05;;;2.00;;
14776;SDS011;7480;43.124;25.686;2023-05-07T13:56:32;4.47;;;1.70;;
14776;SDS011;7480;43.124;25.686;2023-05-07T13:58:58;2.17;;;1.60;;
14776;SDS011;7480;43.124;25.686;2023-05-07T14:01:26;2.58;;;1.70;;
14776;SDS011;7480;43.124;25.686;2023-05-07T14:03:53;3.35;;;1.83;;
14776;SDS011;7480;43.124;25.686;2023-05-07T14:06:19;2.80;;;1.80;;
14776;SDS011;7480;43.124;25.686;2023-05-07T14:08:46;4.10;;;1.60;;
14776;SDS011;7480;43.124;25.686;2023-05-07T14:11:12;4.90;;;2.25;;
14776;SDS011;7480;43.124;25.686;2023-05-07T14:13:39;3.13;;;2.10;;
14776;SDS011;7480;43.124;25.686;2023-05-07T14:16:05;4.07;;;1.70;;
14776;SDS011;7480;43.124;25.686;2023-05-07T14:18:32;2.03;;;1.83;;
14776;SDS011;7480;43.124;25.686;2023-05-07T14:21:00;4.45;;;2.00;;
14776;SDS011;7480;43.124;25.686;2023-05-07T14:23:27;2.75;;;2.10;;
14776;SDS011;7480;43.124;25.686;2023-05-07T14:25:54;3.45;;;1.83;;
14776;SDS011;7480;43.124;25.686;2023-05-07T14:28:20;2.17;;;1.80;;
14776;SDS011;7480;43.124;25.686;2023-05-07T14:30:47;3.15;;;1.83;;
14776;SDS011;7480;43.124;25.686;2023-05-07T14:33:13;2.03;;;1.83;;
14776;SDS011;7480;43.124;25.686;2023-05-07T14:35:40;3.08;;;2.03;;
14776;SDS011;7480;43.124;25.686;2023-05-07T14:38:07;2.85;;;2.10;;
14776;SDS011;7480;43.124;25.686;2023-05-07T14:40:33;3.58;;;1.70;;
14776;SDS011;7480;43.124;25.686;2023-05-07T14:42:59;2.03;;;1.67;;
14776;SDS011;7480;43.124;25.686;2023-05-07T14:45:26;3.42;;;2.15;;
14776;SDS011;7480;43.124;25.686;2023-05-07T14:47:52;4.60;;;2.70;;
14776;SDS011;7480;43.124;25.686;2023-05-07T14:50:19;3.38;;;2.03;;
14776;SDS011;7480;43.124;25.686;2023-05-07T14:52:46;2.92;;;1.88;;
14776;SDS011;7480;43.124;25.686;2023-05-07T14:55:12;4.50;;;2.00;;
14776;SDS011;7480;43.124;25.686;2023-05-07T14:57:39;2.28;;;1.80;;
14776;SDS011;7480;43.124;25.686;2023-05-07T15:00:06;2.58;;;1.88;;
14776;SDS011;7480;43.124;25.686;2023-05-07T15:02:33;1.98;;;1.60;;